Flight Track Log - Related Links

Times and Time Zones

All times are in EDT time to prevent confusion due to time zone crossing. See the USC105 flight status page for this flight to view local times or setup timezone preferences in your user account.

Time Position Orientation Groundspeed Altitude Reporting Facility
EDT Latitude Longitude Course Direction KTS MPH feet Rate Location/Type
Tue 12:20:22 AM 42.2192 -83.5747 258° West 107 123 2,300  Level Cleveland Center
Tue 12:21:23 AM 42.2139 -83.6167 260° West 103 119 3,200 787 Climbing Cleveland Center
Tue 12:22:24 AM 42.2128 -83.6586 268° West 109 125 3,900 397 Climbing Cleveland Center
Tue 12:23:24 AM 42.2092 -83.7089 264° West 141 162 4,000  Climbing Cleveland Center
Tue 12:24:25 AM 42.2078 -83.7594 268° West 138 159 3,900 -50 Descending Cleveland Center
Tue 12:25:25 AM 42.2064 -83.8125 268° West 152 175 3,900  Level Cleveland Center
Tue 12:27:00 AM 42.2047 -83.9077 269° West  Level FlightAware Approximate
Tue 12:28:26 AM 42.1986 -83.9861 269° West 182 209 3,900  Level Chicago Center
Tue 12:29:27 AM 42.1964 -84.0439 267° West 157 181 3,900  Level Chicago Center
Tue 12:30:27 AM 42.1925 -84.1017 265° West 156 180 3,900  Level Chicago Center
Tue 12:31:28 AM 42.1894 -84.1611 266° West 158 182 3,900  Level Chicago Center
Tue 12:32:28 AM 42.1872 -84.2186 267° West 157 181 3,900  Level Chicago Center
Tue 12:33:29 AM 42.1842 -84.2753 266° West 155 178 3,900  Level Chicago Center
Tue 12:34:29 AM 42.1808 -84.3325 266° West 154 177 3,900  Level Chicago Center
Tue 12:35:30 AM 42.1781 -84.3889 266° West 152 175 3,900  Level Chicago Center
Tue 12:36:31 AM 42.1747 -84.4464 266° West 153 176 3,900  Level Chicago Center
Tue 12:37:31 AM 42.1719 -84.5019 266° West 152 175 3,900  Level Chicago Center
Tue 12:38:32 AM 42.1681 -84.5578 265° West 151 174 3,900  Level Chicago Center
Tue 12:39:32 AM 42.1650 -84.6133 266° West 150 173 3,900  Level Chicago Center
Tue 12:40:33 AM 42.1622 -84.6697 266° West 150 173 3,900  Level Chicago Center
Tue 12:41:33 AM 42.1592 -84.7258 266° West 151 174 3,900  Level Chicago Center
Tue 12:42:34 AM 42.1556 -84.7811 265° West 150 173 3,900  Level Chicago Center
Tue 12:43:34 AM 42.1525 -84.8353 266° West 148 170 3,900  Level Chicago Center
Tue 12:44:34 AM 42.1492 -84.8928 266° West 152 175 3,900  Level Chicago Center
Tue 12:45:35 AM 42.1450 -84.9522 265° West 158 182 3,900  Level Chicago Center
Tue 12:46:35 AM 42.1411 -85.0250 266° West 163 188 3,900  Level Chicago Center
Tue 12:47:36 AM 42.1372 -85.0864 265° West 164 189 3,900 50 Level Chicago Center
Tue 12:48:36 AM 42.1350 -85.1481 267° West 165 190 4,000  Climbing Chicago Center
Tue 12:49:36 AM 42.1294 -85.2106 263° West 168 193 3,900 -50 Descending Chicago Center
Tue 12:50:37 AM 42.1258 -85.2736 266° West 170 196 3,900  Level Chicago Center
Tue 12:51:37 AM 42.1236 -85.3358 267° West 169 194 3,900  Level Chicago Center
Tue 12:52:37 AM 42.1186 -85.3981 264° West 168 193 3,900  Level Chicago Center
Tue 12:53:38 AM 42.1147 -85.4603 265° West 168 193 3,900 50 Level Chicago Center
Tue 12:54:38 AM 42.1114 -85.5231 266° West 169 194 4,000  Climbing Chicago Center
Tue 12:55:38 AM 42.1058 -85.5869 263° West 171 197 3,900 -50 Descending Chicago Center
Tue 12:56:39 AM 42.1028 -85.6517 266° West 173 199 3,900 50 Level Chicago Center
Tue 12:57:39 AM 42.0986 -85.7150 265° West 172 198 4,000 50 Climbing Chicago Center
Tue 12:58:39 AM 42.0944 -85.7786 265° West 171 197 4,000 -50 Level Chicago Center
Tue 12:59:40 AM 42.0892 -85.8425 264° West 173 199 3,900 -50 Descending Chicago Center
Tue 01:00:40 AM 42.0850 -85.9056 265° West 171 197 3,900  Level Chicago Center
Tue 01:01:41 AM 42.0808 -85.9681 265° West 170 196 3,900 50 Level Chicago Center
Tue 01:02:41 AM 42.0769 -86.0300 265° West 168 193 4,000  Climbing Chicago Center
Tue 01:03:41 AM 42.0731 -86.0919 265° West 167 192 3,900 -50 Descending Chicago Center
Tue 01:04:42 AM 42.0689 -86.1567 265° West 172 198 3,900  Level Chicago Center
Tue 01:05:42 AM 42.0639 -86.2200 264° West 171 197 3,900  Level Chicago Center
Tue 01:06:42 AM 42.0594 -86.2853 265° West 174 200 3,900  Level Chicago Center
Tue 01:07:42 AM 42.0556 -86.3483 265° West 172 198 3,900  Level Chicago Center
Tue 01:08:43 AM 42.0511 -86.4111 265° West 170 196 3,900  Level Chicago Center
Tue 01:09:43 AM 42.0467 -86.4728 264° West 167 192 3,900  Level Chicago Center
Tue 01:10:43 AM 42.0425 -86.5350 265° West 166 191 3,900  Level Chicago Center
Tue 01:11:44 AM 42.0367 -86.6072 264° West 164 189 3,900  Level Chicago Center
Tue 01:12:44 AM 42.0325 -86.6703 265° West 168 193 3,900  Level Chicago Center
Tue 01:13:44 AM 42.0289 -86.7250 265° West 169 194 3,900  Level Chicago Center
Tue 01:14:45 AM 42.0236 -86.7850 263° West 164 189 3,900  Level Chicago Center
Tue 01:15:45 AM 42.0200 -86.8456 265° West 163 188 3,900  Level Chicago Center
Tue 01:16:45 AM 42.0153 -86.9072 264° West 166 191 3,900  Level Chicago Center
Tue 01:17:46 AM 42.0114 -86.9669 265° West 163 188 3,900  Level Chicago Center
Tue 01:18:46 AM 42.0067 -87.0275 264° West 164 189 3,900  Level Chicago Center
Tue 01:19:46 AM 42.0011 -87.0997 264° West 163 188 3,900 -50 Level Chicago Center
Tue 01:20:46 AM 41.9958 -87.1617 263° West 166 191 3,800 -298 Descending Chicago Center
Tue 01:21:47 AM 41.9914 -87.2261 265° West 172 198 3,300 -446 Descending Chicago Center
Tue 01:22:47 AM 41.9858 -87.2908 263° West 174 200 2,900 -200 Descending Chicago Center
Tue 01:23:47 AM 41.9506 -87.3358 223° Southwest 173 199 2,900  Level Chicago Center
Tue 01:24:47 AM 41.9147 -87.3775 221° Southwest 171 197 2,900  Level Chicago Center
Tue 01:25:10 AM 41.9000 -87.4000 229° Southwest 174 200 2,900 506 Level Chicago TRACON
Tue 01:26:10 AM 41.8667 -87.4333 217° Southwest 152 175 3,600 612 Climbing Chicago TRACON
Tue 01:26:48 AM 41.8450 -87.4528 214° Southwest 163 188 3,900 184 Climbing Chicago Center
Tue 01:27:48 AM 41.8289 -87.5075 248° West 161 185 3,900  Level Chicago Center
Tue 01:28:48 AM 41.8142 -87.5672 252° West 167 192 3,900  Level Chicago Center
Tue 01:29:49 AM 41.8047 -87.6269 258° West 167 192 3,900  Level Chicago Center
Tue 01:30:11 AM 41.8000 -87.6500 255° West 167 192 3,900  Level Chicago TRACON
Tue 01:31:11 AM 41.8000 -87.7167 270° West 159 183 3,900  Level Chicago TRACON
Tue 01:32:11 AM 41.8000 -87.7667 270° West 152 175 3,900  Level Chicago TRACON
Tue 01:33:11 AM 41.8000 -87.8333 270° West 148 170 3,900 -250 Level Chicago TRACON
Tue 01:34:11 AM 41.8167 -87.8833 294° West 158 182 3,400 -545 Descending Chicago TRACON
Tue 01:34:50 AM 41.8219 -87.9108 284° West 154 177 3,000 -667 Descending Chicago Center
Tue 01:35:50 AM 41.8383 -87.9653 292° West 157 181 2,300 -400 Descending Chicago Center
Tue 01:36:50 AM 41.8533 -88.0183 291° West 157 181 2,200 -248 Descending Chicago Center
Tue 01:37:51 AM 41.8672 -88.0686 290° West 152 175 1,800 -293 Descending Chicago Center
Tue 01:38:12 AM 41.8833 -88.1000 305° West 137 158 1,800 -74 Level Chicago TRACON
Tue 01:39:12 AM 41.8833 -88.1333 270° West 134 154 1,700 -182 Descending Chicago TRACON
Tue 01:39:51 AM 41.8958 -88.1611 301° West 140 161 1,500 -242 Descending Chicago Center
Tue 01:40:51 AM 41.9081 -88.2039 291° West 133 153 1,300 -250 Descending Chicago Center
Tue 01:41:51 AM 41.9167 -88.2489 284° West 125 144 1,000 -300 Descending Chicago Center
Tue 01:43:00 AM 41.9071 -88.2480 270° West  Level Estimated

Login

Don't have an account? Register now (free) for customized features, flight alerts, and more!